sensor_id;sensor_type;location;lat;lon;timestamp;temperature;humidity
54938;DHT22;52756;52.826;6.214;2023-06-14T00:00:42;19.20;40.10
54938;DHT22;52756;52.826;6.214;2023-06-14T00:03:10;19.10;40.00
54938;DHT22;52756;52.826;6.214;2023-06-14T00:05:37;19.10;40.30
54938;DHT22;52756;52.826;6.214;2023-06-14T00:08:11;19.10;40.40
54938;DHT22;52756;52.826;6.214;2023-06-14T00:10:37;19.10;40.40
54938;DHT22;52756;52.826;6.214;2023-06-14T00:13:03;19.00;40.30
54938;DHT22;52756;52.826;6.214;2023-06-14T00:15:31;19.10;40.40
54938;DHT22;52756;52.826;6.214;2023-06-14T00:18:00;19.00;40.40
54938;DHT22;52756;52.826;6.214;2023-06-14T00:20:30;19.00;40.60
54938;DHT22;52756;52.826;6.214;2023-06-14T00:22:59;19.00;40.50
54938;DHT22;52756;52.826;6.214;2023-06-14T00:25:26;19.00;40.60
54938;DHT22;52756;52.826;6.214;2023-06-14T00:27:52;19.00;40.50
54938;DHT22;52756;52.826;6.214;2023-06-14T00:30:18;18.90;40.50
54938;DHT22;52756;52.826;6.214;2023-06-14T00:32:45;18.90;40.60
54938;DHT22;52756;52.826;6.214;2023-06-14T00:35:11;18.90;40.90
54938;DHT22;52756;52.826;6.214;2023-06-14T00:37:37;18.90;40.80
54938;DHT22;52756;52.826;6.214;2023-06-14T00:40:04;18.90;40.90
54938;DHT22;52756;52.826;6.214;2023-06-14T00:42:30;18.80;40.90
54938;DHT22;52756;52.826;6.214;2023-06-14T00:44:56;18.80;40.90
54938;DHT22;52756;52.826;6.214;2023-06-14T00:47:22;18.80;40.90
54938;DHT22;52756;52.826;6.214;2023-06-14T00:49:49;18.70;41.10
54938;DHT22;52756;52.826;6.214;2023-06-14T00:52:16;18.70;41.20
54938;DHT22;52756;52.826;6.214;2023-06-14T00:54:43;18.70;41.30
54938;DHT22;52756;52.826;6.214;2023-06-14T00:57:12;18.70;41.40
54938;DHT22;52756;52.826;6.214;2023-06-14T01:02:08;18.60;41.50
54938;DHT22;52756;52.826;6.214;2023-06-14T01:04:34;18.60;41.60
54938;DHT22;52756;52.826;6.214;2023-06-14T01:13:20;18.50;41.90
54938;DHT22;52756;52.826;6.214;2023-06-14T01:15:48;18.50;41.90
54938;DHT22;52756;52.826;6.214;2023-06-14T01:18:14;18.40;42.10
54938;DHT22;52756;52.826;6.214;2023-06-14T01:20:45;18.40;42.30
54938;DHT22;52756;52.826;6.214;2023-06-14T01:23:16;18.40;42.50
54938;DHT22;52756;52.826;6.214;2023-06-14T01:25:42;18.30;42.60
54938;DHT22;52756;52.826;6.214;2023-06-14T01:28:10;18.30;42.70
54938;DHT22;52756;52.826;6.214;2023-06-14T01:30:41;18.30;42.80
54938;DHT22;52756;52.826;6.214;2023-06-14T01:33:12;18.30;42.90
54938;DHT22;52756;52.826;6.214;2023-06-14T01:35:38;18.20;43.00
54938;DHT22;52756;52.826;6.214;2023-06-14T01:38:05;18.10;43.20
54938;DHT22;52756;52.826;6.214;2023-06-14T01:40:34;18.10;43.30
54938;DHT22;52756;52.826;6.214;2023-06-14T01:43:01;18.10;43.50
54938;DHT22;52756;52.826;6.214;2023-06-14T01:45:28;18.00;43.60
54938;DHT22;52756;52.826;6.214;2023-06-14T01:47:55;18.00;43.80
54938;DHT22;52756;52.826;6.214;2023-06-14T01:50:21;18.00;43.80
54938;DHT22;52756;52.826;6.214;2023-06-14T01:52:46;17.90;43.90
54938;DHT22;52756;52.826;6.214;2023-06-14T01:55:12;17.90;44.10
54938;DHT22;52756;52.826;6.214;2023-06-14T01:57:38;17.90;44.20
54938;DHT22;52756;52.826;6.214;2023-06-14T02:00:05;17.90;44.40
54938;DHT22;52756;52.826;6.214;2023-06-14T02:02:36;17.90;44.40
54938;DHT22;52756;52.826;6.214;2023-06-14T02:05:01;17.80;44.50
54938;DHT22;52756;52.826;6.214;2023-06-14T02:07:27;17.80;44.50
54938;DHT22;52756;52.826;6.214;2023-06-14T02:09:53;17.80;44.70
54938;DHT22;52756;52.826;6.214;2023-06-14T02:12:19;17.80;44.70
54938;DHT22;52756;52.826;6.214;2023-06-14T02:14:45;17.80;44.70
54938;DHT22;52756;52.826;6.214;2023-06-14T02:17:10;17.80;44.80
54938;DHT22;52756;52.826;6.214;2023-06-14T02:19:36;17.80;44.90
54938;DHT22;52756;52.826;6.214;2023-06-14T02:22:01;17.80;45.00
54938;DHT22;52756;52.826;6.214;2023-06-14T02:24:27;17.80;45.60
54938;DHT22;52756;52.826;6.214;2023-06-14T02:26:53;17.80;45.20
54938;DHT22;52756;52.826;6.214;2023-06-14T02:29:18;17.80;45.30
54938;DHT22;52756;52.826;6.214;2023-06-14T02:31:44;17.80;45.50
54938;DHT22;52756;52.826;6.214;2023-06-14T02:34:12;17.80;45.60
54938;DHT22;52756;52.826;6.214;2023-06-14T02:36:38;17.70;45.80
54938;DHT22;52756;52.826;6.214;2023-06-14T02:39:08;17.70;45.90
54938;DHT22;52756;52.826;6.214;2023-06-14T02:41:34;17.60;45.90
54938;DHT22;52756;52.826;6.214;2023-06-14T02:44:00;17.60;46.10
54938;DHT22;52756;52.826;6.214;2023-06-14T02:46:26;17.60;46.30
54938;DHT22;52756;52.826;6.214;2023-06-14T02:48:51;17.50;46.20
54938;DHT22;52756;52.826;6.214;2023-06-14T02:51:17;17.50;46.40
54938;DHT22;52756;52.826;6.214;2023-06-14T02:53:43;17.50;46.60
54938;DHT22;52756;52.826;6.214;2023-06-14T02:56:09;17.40;46.90
54938;DHT22;52756;52.826;6.214;2023-06-14T02:58:38;17.40;46.80
54938;DHT22;52756;52.826;6.214;2023-06-14T03:01:07;17.40;46.90
54938;DHT22;52756;52.826;6.214;2023-06-14T03:03:33;17.40;47.10
54938;DHT22;52756;52.826;6.214;2023-06-14T03:05:59;17.30;47.20
54938;DHT22;52756;52.826;6.214;2023-06-14T03:08:30;17.30;47.40
54938;DHT22;52756;52.826;6.214;2023-06-14T03:10:57;17.30;47.60
54938;DHT22;52756;52.826;6.214;2023-06-14T03:13:23;17.20;47.80
54938;DHT22;52756;52.826;6.214;2023-06-14T03:15:49;17.20;47.90
54938;DHT22;52756;52.826;6.214;2023-06-14T03:18:16;17.20;47.90
54938;DHT22;52756;52.826;6.214;2023-06-14T03:20:42;17.20;48.00
54938;DHT22;52756;52.826;6.214;2023-06-14T03:23:08;17.20;48.10
54938;DHT22;52756;52.826;6.214;2023-06-14T03:25:34;17.20;48.30
54938;DHT22;52756;52.826;6.214;2023-06-14T03:28:07;17.10;48.20
54938;DHT22;52756;52.826;6.214;2023-06-14T03:30:32;17.10;48.40
54938;DHT22;52756;52.826;6.214;2023-06-14T03:32:58;17.10;48.40
54938;DHT22;52756;52.826;6.214;2023-06-14T03:35:27;17.10;48.80
54938;DHT22;52756;52.826;6.214;2023-06-14T03:37:53;17.00;48.80
54938;DHT22;52756;52.826;6.214;2023-06-14T03:40:19;17.00;48.90
54938;DHT22;52756;52.826;6.214;2023-06-14T03:42:47;17.00;49.00
54938;DHT22;52756;52.826;6.214;2023-06-14T03:45:13;17.00;49.10
54938;DHT22;52756;52.826;6.214;2023-06-14T03:47:39;17.00;49.20
54938;DHT22;52756;52.826;6.214;2023-06-14T03:50:05;17.00;49.50
54938;DHT22;52756;52.826;6.214;2023-06-14T03:52:31;17.00;49.60
54938;DHT22;52756;52.826;6.214;2023-06-14T03:54:58;17.00;49.80
54938;DHT22;52756;52.826;6.214;2023-06-14T03:57:25;17.00;50.10
54938;DHT22;52756;52.826;6.214;2023-06-14T03:59:51;16.90;50.20
54938;DHT22;52756;52.826;6.214;2023-06-14T04:02:17;16.90;50.30
54938;DHT22;52756;52.826;6.214;2023-06-14T04:04:44;16.90;50.50
54938;DHT22;52756;52.826;6.214;2023-06-14T04:07:14;16.80;50.70
54938;DHT22;52756;52.826;6.214;2023-06-14T04:09:41;16.80;50.80
54938;DHT22;52756;52.826;6.214;2023-06-14T04:12:07;16.80;51.10
54938;DHT22;52756;52.826;6.214;2023-06-14T04:14:34;16.70;51.30
54938;DHT22;52756;52.826;6.214;2023-06-14T04:17:00;16.70;51.70
54938;DHT22;52756;52.826;6.214;2023-06-14T04:19:26;16.70;51.90
54938;DHT22;52756;52.826;6.214;2023-06-14T04:21:52;16.60;51.90
54938;DHT22;52756;52.826;6.214;2023-06-14T04:24:18;16.60;52.20
54938;DHT22;52756;52.826;6.214;2023-06-14T04:26:45;16.60;52.40
54938;DHT22;52756;52.826;6.214;2023-06-14T04:29:13;16.50;52.50
54938;DHT22;52756;52.826;6.214;2023-06-14T04:31:45;16.50;52.70
54938;DHT22;52756;52.826;6.214;2023-06-14T04:34:12;16.50;52.80
54938;DHT22;52756;52.826;6.214;2023-06-14T04:36:43;16.50;53.20
54938;DHT22;52756;52.826;6.214;2023-06-14T04:39:18;16.50;53.50
54938;DHT22;52756;52.826;6.214;2023-06-14T04:41:44;16.50;53.70
54938;DHT22;52756;52.826;6.214;2023-06-14T04:44:10;16.50;53.60
54938;DHT22;52756;52.826;6.214;2023-06-14T04:46:36;16.50;53.90
54938;DHT22;52756;52.826;6.214;2023-06-14T04:49:14;16.50;54.10
54938;DHT22;52756;52.826;6.214;2023-06-14T04:51:45;16.50;54.20
54938;DHT22;52756;52.826;6.214;2023-06-14T04:54:12;16.50;54.40
54938;DHT22;52756;52.826;6.214;2023-06-14T04:56:43;16.50;54.50
54938;DHT22;52756;52.826;6.214;2023-06-14T04:59:10;16.50;54.90
54938;DHT22;52756;52.826;6.214;2023-06-14T05:01:40;16.50;54.90
54938;DHT22;52756;52.826;6.214;2023-06-14T05:04:06;16.60;55.20
54938;DHT22;52756;52.826;6.214;2023-06-14T05:06:32;16.60;55.30
54938;DHT22;52756;52.826;6.214;2023-06-14T05:08:58;16.60;55.50
54938;DHT22;52756;52.826;6.214;2023-06-14T05:11:24;16.60;55.60
54938;DHT22;52756;52.826;6.214;2023-06-14T05:13:50;16.70;55.80
54938;DHT22;52756;52.826;6.214;2023-06-14T05:16:16;16.70;55.80
54938;DHT22;52756;52.826;6.214;2023-06-14T05:18:45;16.80;55.70
54938;DHT22;52756;52.826;6.214;2023-06-14T05:21:12;16.90;55.50
54938;DHT22;52756;52.826;6.214;2023-06-14T05:23:38;17.00;55.50
54938;DHT22;52756;52.826;6.214;2023-06-14T05:26:04;17.10;55.50
54938;DHT22;52756;52.826;6.214;2023-06-14T05:28:30;17.30;55.40
54938;DHT22;52756;52.826;6.214;2023-06-14T05:30:56;17.50;55.10
54938;DHT22;52756;52.826;6.214;2023-06-14T05:33:23;17.60;54.90
54938;DHT22;52756;52.826;6.214;2023-06-14T05:35:49;17.80;54.80
54938;DHT22;52756;52.826;6.214;2023-06-14T05:38:14;18.00;54.20
54938;DHT22;52756;52.826;6.214;2023-06-14T05:40:40;18.30;53.80
54938;DHT22;52756;52.826;6.214;2023-06-14T05:43:06;18.40;53.30
54938;DHT22;52756;52.826;6.214;2023-06-14T05:45:31;18.70;53.10
54938;DHT22;52756;52.826;6.214;2023-06-14T05:47:57;18.90;52.50
54938;DHT22;52756;52.826;6.214;2023-06-14T05:50:23;19.10;52.20
54938;DHT22;52756;52.826;6.214;2023-06-14T05:52:48;19.30;51.90
54938;DHT22;52756;52.826;6.214;2023-06-14T05:55:16;19.50;51.50
54938;DHT22;52756;52.826;6.214;2023-06-14T05:57:42;19.70;50.80
54938;DHT22;52756;52.826;6.214;2023-06-14T06:00:08;19.80;50.20
54938;DHT22;52756;52.826;6.214;2023-06-14T06:02:36;19.90;49.80
54938;DHT22;52756;52.826;6.214;2023-06-14T06:05:02;20.00;49.60
54938;DHT22;52756;52.826;6.214;2023-06-14T06:07:28;20.10;49.00
54938;DHT22;52756;52.826;6.214;2023-06-14T06:09:53;20.30;48.40
54938;DHT22;52756;52.826;6.214;2023-06-14T06:12:19;20.40;48.10
54938;DHT22;52756;52.826;6.214;2023-06-14T06:14:45;20.50;47.80
54938;DHT22;52756;52.826;6.214;2023-06-14T06:17:10;20.50;47.60
54938;DHT22;52756;52.826;6.214;2023-06-14T06:19:36;20.60;47.00
54938;DHT22;52756;52.826;6.214;2023-06-14T06:22:02;20.60;47.00
54938;DHT22;52756;52.826;6.214;2023-06-14T06:24:30;20.60;46.90
54938;DHT22;52756;52.826;6.214;2023-06-14T06:26:55;20.70;46.30
54938;DHT22;52756;52.826;6.214;2023-06-14T06:29:21;20.70;46.10
54938;DHT22;52756;52.826;6.214;2023-06-14T06:31:47;20.70;45.80
54938;DHT22;52756;52.826;6.214;2023-06-14T06:34:12;20.70;45.80
54938;DHT22;52756;52.826;6.214;2023-06-14T06:36:38;20.70;45.80
54938;DHT22;52756;52.826;6.214;2023-06-14T06:39:04;20.70;46.00
54938;DHT22;52756;52.826;6.214;2023-06-14T06:41:38;20.80;46.40
54938;DHT22;52756;52.826;6.214;2023-06-14T06:44:06;20.90;45.20
54938;DHT22;52756;52.826;6.214;2023-06-14T06:46:32;20.90;45.40
54938;DHT22;52756;52.826;6.214;2023-06-14T06:48:58;21.00;45.80
54938;DHT22;52756;52.826;6.214;2023-06-14T06:51:24;21.20;45.70
54938;DHT22;52756;52.826;6.214;2023-06-14T06:53:53;21.40;45.00
54938;DHT22;52756;52.826;6.214;2023-06-14T06:56:20;21.50;45.50
54938;DHT22;52756;52.826;6.214;2023-06-14T06:58:46;21.70;44.60
54938;DHT22;52756;52.826;6.214;2023-06-14T07:01:12;21.80;44.10
54938;DHT22;52756;52.826;6.214;2023-06-14T07:03:38;21.90;44.10
54938;DHT22;52756;52.826;6.214;2023-06-14T07:06:04;22.00;43.70
54938;DHT22;52756;52.826;6.214;2023-06-14T07:08:30;22.10;43.70
54938;DHT22;52756;52.826;6.214;2023-06-14T07:10:56;22.30;43.70
54938;DHT22;52756;52.826;6.214;2023-06-14T07:13:21;22.50;43.00
54938;DHT22;52756;52.826;6.214;2023-06-14T07:15:47;22.50;42.10
54938;DHT22;52756;52.826;6.214;2023-06-14T07:18:13;22.60;41.90
54938;DHT22;52756;52.826;6.214;2023-06-14T07:20:38;22.60;42.10
54938;DHT22;52756;52.826;6.214;2023-06-14T07:23:04;22.70;41.80
54938;DHT22;52756;52.826;6.214;2023-06-14T07:25:31;22.80;41.10
54938;DHT22;52756;52.826;6.214;2023-06-14T07:27:56;22.80;40.20
54938;DHT22;52756;52.826;6.214;2023-06-14T07:30:22;22.80;40.10
54938;DHT22;52756;52.826;6.214;2023-06-14T07:32:52;22.80;39.90
54938;DHT22;52756;52.826;6.214;2023-06-14T07:35:18;22.80;40.30
54938;DHT22;52756;52.826;6.214;2023-06-14T07:37:44;22.80;40.00
54938;DHT22;52756;52.826;6.214;2023-06-14T07:40:13;22.80;40.10
54938;DHT22;52756;52.826;6.214;2023-06-14T07:42:39;22.80;40.90
54938;DHT22;52756;52.826;6.214;2023-06-14T07:45:08;22.90;41.00
54938;DHT22;52756;52.826;6.214;2023-06-14T07:47:34;23.00;39.80
54938;DHT22;52756;52.826;6.214;2023-06-14T07:50:00;23.00;39.70
54938;DHT22;52756;52.826;6.214;2023-06-14T07:52:25;23.00;39.80
54938;DHT22;52756;52.826;6.214;2023-06-14T07:54:51;23.10;39.70
54938;DHT22;52756;52.826;6.214;2023-06-14T07:57:17;23.20;40.10
54938;DHT22;52756;52.826;6.214;2023-06-14T07:59:45;23.30;39.70
54938;DHT22;52756;52.826;6.214;2023-06-14T08:02:11;23.40;39.30
54938;DHT22;52756;52.826;6.214;2023-06-14T08:04:37;23.50;39.10
54938;DHT22;52756;52.826;6.214;2023-06-14T08:07:03;23.50;39.50
54938;DHT22;52756;52.826;6.214;2023-06-14T08:09:29;23.60;39.00
54938;DHT22;52756;52.826;6.214;2023-06-14T08:11:56;23.60;38.50
54938;DHT22;52756;52.826;6.214;2023-06-14T08:14:21;23.60;38.50
54938;DHT22;52756;52.826;6.214;2023-06-14T08:16:48;23.60;38.40
54938;DHT22;52756;52.826;6.214;2023-06-14T08:19:14;23.60;38.40
54938;DHT22;52756;52.826;6.214;2023-06-14T08:21:42;23.60;38.60
54938;DHT22;52756;52.826;6.214;2023-06-14T08:24:10;23.60;37.90
54938;DHT22;52756;52.826;6.214;2023-06-14T08:26:38;23.60;37.90
54938;DHT22;52756;52.826;6.214;2023-06-14T08:29:05;23.60;37.50
54938;DHT22;52756;52.826;6.214;2023-06-14T08:31:32;23.60;37.50
54938;DHT22;52756;52.826;6.214;2023-06-14T08:33:59;23.60;38.10
54938;DHT22;52756;52.826;6.214;2023-06-14T08:36:25;23.60;37.70
54938;DHT22;52756;52.826;6.214;2023-06-14T08:38:51;23.70;37.90
54938;DHT22;52756;52.826;6.214;2023-06-14T08:41:23;23.80;37.60
54938;DHT22;52756;52.826;6.214;2023-06-14T08:43:50;23.90;37.80
54938;DHT22;52756;52.826;6.214;2023-06-14T08:46:17;23.90;38.60
54938;DHT22;52756;52.826;6.214;2023-06-14T08:48:47;24.10;37.70
54938;DHT22;52756;52.826;6.214;2023-06-14T08:51:17;24.10;37.20
54938;DHT22;52756;52.826;6.214;2023-06-14T08:53:43;24.10;36.90
54938;DHT22;52756;52.826;6.214;2023-06-14T08:56:10;24.20;37.20
54938;DHT22;52756;52.826;6.214;2023-06-14T08:58:45;24.20;36.90
54938;DHT22;52756;52.826;6.214;2023-06-14T09:01:13;24.30;37.40
54938;DHT22;52756;52.826;6.214;2023-06-14T09:03:42;24.40;37.10
54938;DHT22;52756;52.826;6.214;2023-06-14T09:06:08;24.40;37.40
54938;DHT22;52756;52.826;6.214;2023-06-14T09:08:43;24.60;37.50
54938;DHT22;52756;52.826;6.214;2023-06-14T09:11:16;24.70;36.90
54938;DHT22;52756;52.826;6.214;2023-06-14T09:13:44;24.90;37.20
54938;DHT22;52756;52.826;6.214;2023-06-14T09:16:10;25.00;36.80
54938;DHT22;52756;52.826;6.214;2023-06-14T09:18:40;25.10;36.20
54938;DHT22;52756;52.826;6.214;2023-06-14T09:21:11;25.20;36.50
54938;DHT22;52756;52.826;6.214;2023-06-14T09:23:38;25.20;35.70
54938;DHT22;52756;52.826;6.214;2023-06-14T09:26:14;25.20;35.30
54938;DHT22;52756;52.826;6.214;2023-06-14T09:28:42;25.20;35.30
54938;DHT22;52756;52.826;6.214;2023-06-14T09:31:14;25.30;35.60
54938;DHT22;52756;52.826;6.214;2023-06-14T09:33:47;25.30;35.10
54938;DHT22;52756;52.826;6.214;2023-06-14T09:36:23;25.40;35.00
54938;DHT22;52756;52.826;6.214;2023-06-14T09:38:56;25.30;35.10
54938;DHT22;52756;52.826;6.214;2023-06-14T09:41:39;25.40;35.20
54938;DHT22;52756;52.826;6.214;2023-06-14T09:44:06;25.40;35.30
54938;DHT22;52756;52.826;6.214;2023-06-14T09:46:33;25.40;34.90
54938;DHT22;52756;52.826;6.214;2023-06-14T09:49:00;25.60;34.90
54938;DHT22;52756;52.826;6.214;2023-06-14T09:51:27;25.70;34.70
54938;DHT22;52756;52.826;6.214;2023-06-14T09:53:59;25.70;34.60
54938;DHT22;52756;52.826;6.214;2023-06-14T09:56:28;25.70;33.90
54938;DHT22;52756;52.826;6.214;2023-06-14T09:58:58;25.50;34.20
54938;DHT22;52756;52.826;6.214;2023-06-14T10:01:26;25.40;34.40
54938;DHT22;52756;52.826;6.214;2023-06-14T10:04:03;25.40;34.90
54938;DHT22;52756;52.826;6.214;2023-06-14T10:06:30;25.50;35.10
54938;DHT22;52756;52.826;6.214;2023-06-14T10:08:58;25.60;35.10
54938;DHT22;52756;52.826;6.214;2023-06-14T10:11:28;25.80;34.90
54938;DHT22;52756;52.826;6.214;2023-06-14T10:13:58;25.80;34.90
54938;DHT22;52756;52.826;6.214;2023-06-14T10:16:32;25.90;34.80
54938;DHT22;52756;52.826;6.214;2023-06-14T10:19:17;26.00;34.40
54938;DHT22;52756;52.826;6.214;2023-06-14T10:24:32;26.00;34.70
54938;DHT22;52756;52.826;6.214;2023-06-14T10:26:58;26.00;35.30
54938;DHT22;52756;52.826;6.214;2023-06-14T10:29:27;26.20;34.80
54938;DHT22;52756;52.826;6.214;2023-06-14T10:31:58;26.30;34.50
54938;DHT22;52756;52.826;6.214;2023-06-14T10:34:29;26.30;34.70
54938;DHT22;52756;52.826;6.214;2023-06-14T10:37:06;26.40;34.50
54938;DHT22;52756;52.826;6.214;2023-06-14T10:39:40;26.50;34.30
54938;DHT22;52756;52.826;6.214;2023-06-14T10:42:06;26.60;34.30
54938;DHT22;52756;52.826;6.214;2023-06-14T10:44:46;26.50;34.10
54938;DHT22;52756;52.826;6.214;2023-06-14T10:49:52;26.70;34.80
54938;DHT22;52756;52.826;6.214;2023-06-14T10:52:24;26.70;34.00
54938;DHT22;52756;52.826;6.214;2023-06-14T10:55:16;26.80;34.30
54938;DHT22;52756;52.826;6.214;2023-06-14T10:57:48;27.00;34.90
54938;DHT22;52756;52.826;6.214;2023-06-14T11:00:18;27.00;34.20
54938;DHT22;52756;52.826;6.214;2023-06-14T11:05:23;26.90;33.00
54938;DHT22;52756;52.826;6.214;2023-06-14T11:10:38;26.50;32.90
54938;DHT22;52756;52.826;6.214;2023-06-14T11:13:05;26.50;33.60
54938;DHT22;52756;52.826;6.214;2023-06-14T11:15:32;26.40;33.70
54938;DHT22;52756;52.826;6.214;2023-06-14T11:18:00;26.40;32.90
54938;DHT22;52756;52.826;6.214;2023-06-14T11:20:29;26.30;32.70
54938;DHT22;52756;52.826;6.214;2023-06-14T11:22:54;26.30;33.00
54938;DHT22;52756;52.826;6.214;2023-06-14T11:25:20;26.30;33.20
54938;DHT22;52756;52.826;6.214;2023-06-14T11:27:48;26.30;33.50
54938;DHT22;52756;52.826;6.214;2023-06-14T11:30:14;26.40;33.30
54938;DHT22;52756;52.826;6.214;2023-06-14T11:32:40;26.40;33.30
54938;DHT22;52756;52.826;6.214;2023-06-14T11:35:06;26.30;32.40
54938;DHT22;52756;52.826;6.214;2023-06-14T11:37:34;26.20;33.20
54938;DHT22;52756;52.826;6.214;2023-06-14T11:40:03;26.20;33.30
54938;DHT22;52756;52.826;6.214;2023-06-14T11:42:33;26.20;33.10
54938;DHT22;52756;52.826;6.214;2023-06-14T11:44:59;26.20;33.40
54938;DHT22;52756;52.826;6.214;2023-06-14T11:47:31;26.30;33.20
54938;DHT22;52756;52.826;6.214;2023-06-14T11:50:02;26.30;33.00
54938;DHT22;52756;52.826;6.214;2023-06-14T11:52:28;26.40;33.30
54938;DHT22;52756;52.826;6.214;2023-06-14T11:54:54;26.40;33.00
54938;DHT22;52756;52.826;6.214;2023-06-14T11:57:20;26.40;32.70
54938;DHT22;52756;52.826;6.214;2023-06-14T11:59:46;26.40;32.70
54938;DHT22;52756;52.826;6.214;2023-06-14T12:02:16;26.40;32.20
54938;DHT22;52756;52.826;6.214;2023-06-14T12:04:48;26.40;32.60
54938;DHT22;52756;52.826;6.214;2023-06-14T12:07:18;26.30;32.20
54938;DHT22;52756;52.826;6.214;2023-06-14T12:12:24;26.10;32.70
54938;DHT22;52756;52.826;6.214;2023-06-14T12:14:55;26.20;32.70
54938;DHT22;52756;52.826;6.214;2023-06-14T12:17:22;26.20;32.70
54938;DHT22;52756;52.826;6.214;2023-06-14T12:19:49;26.20;32.60
54938;DHT22;52756;52.826;6.214;2023-06-14T12:22:16;26.20;32.80
54938;DHT22;52756;52.826;6.214;2023-06-14T12:24:45;26.10;32.70
54938;DHT22;52756;52.826;6.214;2023-06-14T12:27:12;26.10;33.30
54938;DHT22;52756;52.826;6.214;2023-06-14T12:29:42;26.10;33.60
54938;DHT22;52756;52.826;6.214;2023-06-14T12:32:11;26.20;33.40
54938;DHT22;52756;52.826;6.214;2023-06-14T12:34:37;26.30;33.00
54938;DHT22;52756;52.826;6.214;2023-06-14T12:37:03;26.30;32.60
54938;DHT22;52756;52.826;6.214;2023-06-14T12:39:30;26.30;32.90
54938;DHT22;52756;52.826;6.214;2023-06-14T12:41:59;26.30;32.70
54938;DHT22;52756;52.826;6.214;2023-06-14T12:44:24;26.30;32.50
54938;DHT22;52756;52.826;6.214;2023-06-14T12:46:50;26.30;32.40
54938;DHT22;52756;52.826;6.214;2023-06-14T12:49:20;26.30;32.90
54938;DHT22;52756;52.826;6.214;2023-06-14T12:51:46;26.20;32.70
54938;DHT22;52756;52.826;6.214;2023-06-14T12:54:11;26.20;32.50
54938;DHT22;52756;52.826;6.214;2023-06-14T12:56:38;26.20;32.40
54938;DHT22;52756;52.826;6.214;2023-06-14T12:59:03;26.20;32.50
54938;DHT22;52756;52.826;6.214;2023-06-14T13:01:29;26.10;32.40
54938;DHT22;52756;52.826;6.214;2023-06-14T13:03:55;26.00;32.80
54938;DHT22;52756;52.826;6.214;2023-06-14T13:06:21;26.10;32.70
54938;DHT22;52756;52.826;6.214;2023-06-14T13:08:50;26.10;32.80
54938;DHT22;52756;52.826;6.214;2023-06-14T13:11:16;26.00;32.80
54938;DHT22;52756;52.826;6.214;2023-06-14T13:13:42;26.00;33.20
54938;DHT22;52756;52.826;6.214;2023-06-14T13:16:07;26.00;33.70
54938;DHT22;52756;52.826;6.214;2023-06-14T13:18:33;26.10;33.70
54938;DHT22;52756;52.826;6.214;2023-06-14T13:20:59;26.20;33.40
54938;DHT22;52756;52.826;6.214;2023-06-14T13:23:25;26.20;33.00
54938;DHT22;52756;52.826;6.214;2023-06-14T13:25:51;26.20;32.40
54938;DHT22;52756;52.826;6.214;2023-06-14T13:28:16;26.10;32.00
54938;DHT22;52756;52.826;6.214;2023-06-14T13:30:42;26.10;32.00
54938;DHT22;52756;52.826;6.214;2023-06-14T13:33:08;26.00;32.30
54938;DHT22;52756;52.826;6.214;2023-06-14T13:35:34;26.10;32.60
54938;DHT22;52756;52.826;6.214;2023-06-14T13:38:00;26.00;32.40
54938;DHT22;52756;52.826;6.214;2023-06-14T13:40:26;26.00;33.40
54938;DHT22;52756;52.826;6.214;2023-06-14T13:42:52;26.00;32.90
54938;DHT22;52756;52.826;6.214;2023-06-14T13:45:18;26.00;32.80
54938;DHT22;52756;52.826;6.214;2023-06-14T13:47:43;26.00;32.80
54938;DHT22;52756;52.826;6.214;2023-06-14T13:50:09;26.00;32.80
54938;DHT22;52756;52.826;6.214;2023-06-14T13:52:35;26.00;32.50
54938;DHT22;52756;52.826;6.214;2023-06-14T13:55:01;26.00;32.80
54938;DHT22;52756;52.826;6.214;2023-06-14T13:57:27;26.00;32.40
54938;DHT22;52756;52.826;6.214;2023-06-14T13:59:52;26.00;32.90
54938;DHT22;52756;52.826;6.214;2023-06-14T14:02:21;26.00;32.90
54938;DHT22;52756;52.826;6.214;2023-06-14T14:04:46;25.90;33.10
54938;DHT22;52756;52.826;6.214;2023-06-14T14:07:18;25.90;32.90
54938;DHT22;52756;52.826;6.214;2023-06-14T14:09:44;25.80;33.40
54938;DHT22;52756;52.826;6.214;2023-06-14T14:12:10;25.80;33.20
54938;DHT22;52756;52.826;6.214;2023-06-14T14:14:36;25.80;33.30
54938;DHT22;52756;52.826;6.214;2023-06-14T14:17:02;25.90;33.60
54938;DHT22;52756;52.826;6.214;2023-06-14T14:19:28;25.80;33.50
54938;DHT22;52756;52.826;6.214;2023-06-14T14:21:54;25.80;33.20
54938;DHT22;52756;52.826;6.214;2023-06-14T14:24:19;25.80;33.20
54938;DHT22;52756;52.826;6.214;2023-06-14T14:26:45;25.80;33.20
54938;DHT22;52756;52.826;6.214;2023-06-14T14:29:14;25.90;33.10
54938;DHT22;52756;52.826;6.214;2023-06-14T14:31:40;25.90;33.30
54938;DHT22;52756;52.826;6.214;2023-06-14T14:34:06;25.90;33.10
54938;DHT22;52756;52.826;6.214;2023-06-14T14:36:31;25.90;33.20
54938;DHT22;52756;52.826;6.214;2023-06-14T14:38:59;25.90;33.50
54938;DHT22;52756;52.826;6.214;2023-06-14T14:41:24;26.00;34.00
54938;DHT22;52756;52.826;6.214;2023-06-14T14:43:50;26.10;33.50
54938;DHT22;52756;52.826;6.214;2023-06-14T14:46:16;26.20;33.80
54938;DHT22;52756;52.826;6.214;2023-06-14T14:48:42;26.20;33.20
54938;DHT22;52756;52.826;6.214;2023-06-14T14:51:08;26.20;33.30
54938;DHT22;52756;52.826;6.214;2023-06-14T14:53:33;26.30;33.50
54938;DHT22;52756;52.826;6.214;2023-06-14T14:56:00;26.30;33.10
54938;DHT22;52756;52.826;6.214;2023-06-14T14:58:25;26.30;33.20
54938;DHT22;52756;52.826;6.214;2023-06-14T15:00:51;26.20;32.80
54938;DHT22;52756;52.826;6.214;2023-06-14T15:03:17;26.10;32.90
54938;DHT22;52756;52.826;6.214;2023-06-14T15:05:42;26.10;33.20
54938;DHT22;52756;52.826;6.214;2023-06-14T15:08:08;26.10;33.30
54938;DHT22;52756;52.826;6.214;2023-06-14T15:10:40;26.10;33.40
54938;DHT22;52756;52.826;6.214;2023-06-14T15:13:08;26.20;33.60
54938;DHT22;52756;52.826;6.214;2023-06-14T15:15:35;26.20;33.00
54938;DHT22;52756;52.826;6.214;2023-06-14T15:18:02;26.20;32.90
54938;DHT22;52756;52.826;6.214;2023-06-14T15:20:27;26.10;32.80
54938;DHT22;52756;52.826;6.214;2023-06-14T15:22:54;26.00;32.90
54938;DHT22;52756;52.826;6.214;2023-06-14T15:25:26;26.00;33.50
54938;DHT22;52756;52.826;6.214;2023-06-14T15:27:51;26.10;33.90
54938;DHT22;52756;52.826;6.214;2023-06-14T15:30:17;26.20;33.80
54938;DHT22;52756;52.826;6.214;2023-06-14T15:32:43;26.20;33.30
54938;DHT22;52756;52.826;6.214;2023-06-14T15:35:08;26.20;32.90
54938;DHT22;52756;52.826;6.214;2023-06-14T15:37:34;26.20;32.60
54938;DHT22;52756;52.826;6.214;2023-06-14T15:40:00;26.20;32.80
54938;DHT22;52756;52.826;6.214;2023-06-14T15:42:25;26.20;32.90
54938;DHT22;52756;52.826;6.214;2023-06-14T15:44:51;26.20;33.00
54938;DHT22;52756;52.826;6.214;2023-06-14T15:47:17;26.20;33.10
54938;DHT22;52756;52.826;6.214;2023-06-14T15:49:43;26.20;33.00
54938;DHT22;52756;52.826;6.214;2023-06-14T15:52:08;26.20;33.00